Time;durP1;ratioP1;P1;durP2;ratioP2;P2;SDS_P1;SDS_P2;PMS_P1;PMS_P2;Temp;Humidity;BMP_temperature;BMP_pressure;BME280_temperature;BME280_humidity;BME280_pressure;Samples;Min_cycle;Max_cycle;Signal;HPM_P1;HPM_P2
2021/05/11 00:04:10;;;;;;;4.55;3.88;;;;;;;17.31;53.34;100266.25;254944;1100;114255;-78
2021/05/11 00:09:12;;;;;;;3.88;2.98;;;;;;;17.30;52.91;100263.67;255150;1103;114397;-75
2021/05/11 00:14:14;;;;;;;2.78;2.55;;;;;;;17.29;52.99;100265.48;255169;1100;114238;-79
2021/05/11 00:19:17;;;;;;;3.80;3.08;;;;;;;17.31;53.32;100266.25;255063;1101;114196;-76
2021/05/11 00:24:20;;;;;;;3.23;2.28;;;;;;;17.25;53.76;100266.69;255105;1100;114129;-75
2021/05/11 00:29:22;;;;;;;5.35;4.85;;;;;;;17.11;53.85;100256.02;254935;1100;114150;-76
2021/05/11 00:34:24;;;;;;;4.80;4.05;;;;;;;17.10;53.91;100265.91;254660;1106;114339;-73
2021/05/11 00:39:27;;;;;;;7.08;3.45;;;;;;;16.99;54.06;100266.64;254704;1102;114696;-75
2021/05/11 00:44:29;;;;;;;3.00;2.70;;;;;;;16.94;55.08;100266.11;255082;1100;114473;-75
2021/05/11 00:49:33;;;;;;;2.68;2.28;;;;;;;16.87;54.36;100275.54;254418;1100;114506;-78
2021/05/11 00:54:36;;;;;;;2.80;2.38;;;;;;;16.80;55.12;100268.85;254849;1100;114543;-74
2021/05/11 00:59:39;;;;;;;5.25;3.80;;;;;;;16.70;56.15;100257.84;254633;1100;114206;-75
2021/05/11 01:04:41;;;;;;;4.87;3.00;;;;;;;16.73;56.62;100261.20;254954;1100;114605;-76
2021/05/11 01:09:43;;;;;;;5.60;3.70;;;;;;;16.57;56.44;100261.38;254864;1100;114420;-75
2021/05/11 01:14:47;;;;;;;4.33;2.80;;;;;;;16.52;56.36;100266.22;255235;1100;114333;-76
2021/05/11 01:19:53;;;;;;;5.83;3.13;;;;;;;16.45;57.67;100258.64;255081;1100;114617;-76
2021/05/11 01:25:03;;;;;;;3.60;2.60;;;;;;;16.37;57.57;100240.34;255081;1106;114330;-75
2021/05/11 02:22:56;;;;;;;4.25;2.73;;;;;;;15.54;63.13;100233.11;256229;1106;114180;-76
2021/05/11 02:27:58;;;;;;;3.45;3.15;;;;;;;15.42;63.74;100227.56;256049;1100;114093;-76
2021/05/11 02:33:02;;;;;;;3.23;2.93;;;;;;;15.28;64.77;100224.88;256969;1099;114703;-76
2021/05/11 02:38:04;;;;;;;4.10;2.88;;;;;;;15.13;64.58;100235.61;255313;1104;114522;-74
2021/05/11 02:43:18;;;;;;;4.17;2.97;;;;;;;14.98;65.21;100229.34;255559;1099;114368;-74
2021/05/11 02:48:21;;;;;;;3.80;3.37;;;;;;;14.96;65.68;100235.77;255749;1104;114255;-74
2021/05/11 02:53:23;;;;;;;3.98;3.18;;;;;;;15.00;66.29;100231.08;256061;1099;114198;-75
2021/05/11 02:58:25;;;;;;;3.90;3.60;;;;;;;15.03;67.56;100231.75;255653;1104;114586;-73
2021/05/11 03:03:27;;;;;;;5.05;3.68;;;;;;;14.78;69.26;100233.26;256012;1104;114199;-75
2021/05/11 03:08:29;;;;;;;4.70;3.70;;;;;;;14.72;69.58;100238.11;256048;1099;114386;-75
2021/05/11 03:13:31;;;;;;;5.50;3.53;;;;;;;14.55;70.12;100236.41;255733;1100;114198;-76
2021/05/11 03:18:34;;;;;;;7.50;4.15;;;;;;;14.64;70.87;100241.23;255904;1099;114539;-75
2021/05/11 03:23:36;;;;;;;4.28;3.45;;;;;;;14.61;71.20;100246.77;257052;1098;114718;-75
2021/05/11 03:28:38;;;;;;;6.28;3.45;;;;;;;14.60;70.12;100253.96;255549;1107;114802;-77
2021/05/11 03:33:40;;;;;;;5.63;3.87;;;;;;;14.70;69.05;100246.27;254976;1103;114222;-76
2021/05/11 03:38:44;;;;;;;6.77;3.47;;;;;;;14.54;69.48;100240.04;255072;1107;114214;-77
2021/05/11 03:44:05;;;;;;;5.75;4.03;;;;;;;14.50;69.90;100234.88;255678;1100;114638;-75
2021/05/11 03:49:08;;;;;;;5.78;4.05;;;;;;;14.53;69.98;100249.03;256779;1106;114547;-78
2021/05/11 03:54:11;;;;;;;7.35;4.05;;;;;;;14.55;68.81;100241.77;257968;1100;114322;-77
2021/05/11 03:59:13;;;;;;;5.70;3.80;;;;;;;14.74;67.90;100241.58;255708;1106;114166;-76
2021/05/11 04:04:15;;;;;;;7.45;5.28;;;;;;;14.78;66.81;100243.98;255349;1100;114262;-80
2021/05/11 04:19:40;;;;;;;6.10;4.20;;;;;;;15.06;65.35;100231.58;255724;1106;114259;-77
2021/05/11 04:24:42;;;;;;;6.73;5.03;;;;;;;15.11;65.58;100234.83;255319;1100;115179;-78
2021/05/11 04:29:47;;;;;;;6.13;4.68;;;;;;;15.10;64.79;100233.09;255395;1100;114464;-76
2021/05/11 04:34:49;;;;;;;4.93;4.43;;;;;;;15.20;64.11;100232.55;255252;1100;114448;-77
2021/05/11 04:39:53;;;;;;;4.83;4.43;;;;;;;15.28;63.92;100246.36;255806;1107;114310;-77
2021/05/11 04:44:59;;;;;;;4.83;4.08;;;;;;;15.39;63.49;100235.80;257464;1104;114212;-78
2021/05/11 04:50:01;;;;;;;5.70;3.80;;;;;;;15.43;63.73;100240.04;257155;1104;114134;-80
2021/05/11 04:55:03;;;;;;;4.50;4.10;;;;;;;15.46;63.18;100239.83;256326;1100;114306;-77
2021/05/11 05:00:08;;;;;;;5.57;3.57;;;;;;;15.51;62.19;100241.34;257329;1104;114548;-79
2021/05/11 05:05:15;;;;;;;5.63;4.05;;;;;;;15.57;61.61;100249.05;257386;1100;114157;-83
2021/05/11 05:10:17;;;;;;;6.97;5.37;;;;;;;15.63;61.85;100245.97;255858;1106;114252;-81
2021/05/11 05:15:19;;;;;;;5.40;4.53;;;;;;;15.70;61.08;100247.30;256208;1104;114246;-83
2021/05/11 05:20:21;;;;;;;4.60;4.20;;;;;;;15.84;60.67;100249.13;256374;1099;114193;-84
2021/05/11 05:25:27;;;;;;;5.83;4.23;;;;;;;15.94;61.41;100238.63;255851;1100;114780;-82
2021/05/11 05:30:29;;;;;;;5.45;4.48;;;;;;;16.05;61.35;100246.88;256736;1099;114148;-83
2021/05/11 05:35:33;;;;;;;4.50;4.10;;;;;;;16.15;60.02;100243.56;256076;1100;114307;-81
2021/05/11 05:40:39;;;;;;;5.33;4.13;;;;;;;16.26;58.73;100235.67;255612;1107;114252;-82
2021/05/11 05:45:41;;;;;;;6.97;4.07;;;;;;;16.35;58.51;100232.34;256440;1104;114472;-81
2021/05/11 05:50:43;;;;;;;5.65;3.85;;;;;;;16.50;59.19;100235.85;256652;1100;114422;-82
2021/05/11 05:55:45;;;;;;;6.23;4.10;;;;;;;16.59;58.57;100239.73;257304;1100;114550;-79
2021/05/11 06:00:52;;;;;;;8.60;3.95;;;;;;;16.85;58.38;100247.86;257793;1106;114307;-79
2021/05/11 06:05:54;;;;;;;5.85;3.85;;;;;;;17.03;56.76;100237.67;256529;1100;114612;-81
2021/05/11 06:21:39;;;;;;;6.78;3.45;;;;;;;17.35;54.79;100200.39;255529;1107;114352;-81
2021/05/11 06:26:43;;;;;;;5.23;3.30;;;;;;;17.47;54.30;100213.97;257808;1100;114199;-81
2021/05/11 06:31:46;;;;;;;4.63;3.30;;;;;;;17.57;54.83;100211.47;257181;1104;114101;-82
2021/05/11 06:36:48;;;;;;;5.20;3.30;;;;;;;17.71;54.58;100211.33;255341;1100;114261;-82
2021/05/11 06:41:52;;;;;;;4.55;3.30;;;;;;;17.86;52.92;100209.33;256677;1104;114306;-82
2021/05/11 06:57:25;;;;;;;3.78;3.00;;;;;;;18.19;53.42;100194.34;256991;1099;114484;-84
2021/05/11 07:02:30;;;;;;;5.60;2.75;;;;;;;18.32;51.44;100200.52;256844;1104;114184;-85
2021/05/11 07:07:33;;;;;;;4.15;3.08;;;;;;;18.45;51.09;100188.81;255654;1107;114059;-77
2021/05/11 07:18:06;;;;;;;4.65;2.68;;;;;;;18.85;50.06;100179.48;255563;1105;114236;-82
2021/05/11 07:23:09;;;;;;;4.75;2.75;;;;;;;19.12;47.98;100181.86;255598;1107;114440;-80
2021/05/11 07:28:36;;;;;;;4.68;2.68;;;;;;;19.25;48.92;100177.19;255721;1107;114408;-81
2021/05/11 07:33:47;;;;;;;5.40;2.53;;;;;;;19.34;47.82;100185.55;256706;1104;114046;-79
2021/05/11 07:38:50;;;;;;;4.23;3.15;;;;;;;19.51;47.45;100181.48;258475;1100;117915;-80
2021/05/11 07:43:56;;;;;;;2.67;2.47;;;;;;;19.52;48.18;100170.53;256685;1100;114295;-82
2021/05/11 08:15:38;;;;;;;5.73;2.88;;;;;;;20.33;45.75;100166.66;257253;1100;114452;-80
2021/05/11 08:20:36;;;;;;;4.58;2.73;;;;;;;20.47;45.19;100158.22;257964;1106;114428;-81
2021/05/11 08:30:59;;;;;;;4.00;2.80;;;;;;;20.66;47.57;100162.92;256774;1100;114462;-84
2021/05/11 08:36:02;;;;;;;5.55;2.65;;;;;;;20.90;48.10;100158.23;255891;1107;114564;-80
2021/05/11 08:41:05;;;;;;;5.20;3.65;;;;;;;20.78;49.91;100150.20;256525;1104;114941;-82
2021/05/11 08:46:09;;;;;;;5.17;2.73;;;;;;;20.94;47.91;100135.28;256535;1104;114563;-80
2021/05/11 08:51:33;;;;;;;6.20;2.40;;;;;;;21.33;46.75;100151.73;255703;1100;114102;-83
2021/05/11 09:23:53;;;;;;;5.13;2.73;;;;;;;22.38;44.01;100147.66;256489;1105;114228;-82
2021/05/11 09:29:02;;;;;;;5.55;3.08;;;;;;;22.54;43.03;100132.64;257324;1100;114613;-84
2021/05/11 10:01:35;;;;;;;5.48;3.10;;;;;;;23.49;38.60;100116.27;256387;1104;114500;-82
2021/05/11 10:12:14;;;;;;;10.60;4.28;;;;;;;23.65;38.87;100097.42;257772;1104;114144;-83
2021/05/11 10:49:30;;;;;;;5.25;2.63;;;;;;;24.64;37.22;100100.16;256750;1100;114267;-83
2021/05/11 10:55:19;;;;;;;7.08;3.18;;;;;;;24.83;37.01;100099.11;257356;1104;114379;-83
2021/05/11 11:00:25;;;;;;;5.83;2.90;;;;;;;24.93;36.23;100086.23;257264;1100;114294;-82
2021/05/11 11:05:40;;;;;;;3.90;2.50;;;;;;;25.28;36.30;100069.83;259541;1105;114455;-79
2021/05/11 11:10:42;;;;;;;6.55;2.85;;;;;;;25.35;35.51;100056.40;260384;1100;116485;-82
2021/05/11 11:15:47;;;;;;;7.55;3.68;;;;;;;25.57;35.79;100055.81;260882;1104;114661;-82
2021/05/11 11:21:06;;;;;;;6.20;3.08;;;;;;;25.82;35.04;100055.83;259060;1100;114544;-81
2021/05/11 11:26:10;;;;;;;6.97;2.70;;;;;;;26.13;34.53;100035.20;257204;1106;114334;-85
2021/05/11 11:31:27;;;;;;;3.58;2.58;;;;;;;26.80;33.50;100043.13;256876;1104;114073;-81
2021/05/11 11:36:33;;;;;;;5.37;2.93;;;;;;;26.68;32.96;100048.09;256259;1107;114652;-81
2021/05/11 11:41:36;;;;;;;4.23;2.75;;;;;;;26.79;33.86;100030.48;256550;1104;114630;-80
2021/05/11 11:46:38;;;;;;;6.90;2.63;;;;;;;26.20;34.38;100034.37;257081;1100;114353;-83
2021/05/11 11:51:41;;;;;;;5.17;2.30;;;;;;;26.07;35.05;100044.97;256898;1099;114685;-82
2021/05/11 12:02:05;;;;;;;8.10;3.70;;;;;;;27.04;35.07;100019.47;256373;1106;114424;-82
2021/05/11 12:07:10;;;;;;;5.38;2.50;;;;;;;27.00;33.30;100010.77;257080;1100;114466;-81
2021/05/11 12:12:12;;;;;;;4.05;2.38;;;;;;;26.60;33.82;100019.93;256557;1104;114481;-82
2021/05/11 12:17:16;;;;;;;5.45;2.55;;;;;;;26.50;34.32;99998.27;256465;1100;114277;-82
2021/05/11 12:22:19;;;;;;;2.88;2.00;;;;;;;26.35;35.27;99996.26;258088;1100;113836;-81
2021/05/11 12:27:24;;;;;;;4.20;2.53;;;;;;;26.36;35.31;99984.30;257387;1099;114432;-81
2021/05/11 12:32:29;;;;;;;4.30;2.30;;;;;;;26.25;35.92;99980.06;255938;1100;114276;-82
2021/05/11 12:37:52;;;;;;;6.80;3.05;;;;;;;26.22;34.87;99995.95;255940;1107;113890;-82
2021/05/11 12:43:01;;;;;;;5.53;2.30;;;;;;;26.22;34.91;99985.86;256854;1105;114288;-80
2021/05/11 12:48:07;;;;;;;4.90;2.33;;;;;;;26.43;35.23;99976.28;257746;1104;114090;-83
2021/05/11 13:30:36;;;;;;;6.23;2.87;;;;;;;26.61;33.75;99954.16;256582;1100;114585;-82
2021/05/11 13:35:16;;;;;;;4.07;2.60;;;;;;;26.57;34.09;99967.32;257043;1104;114343;-85
2021/05/11 13:40:19;;;;;;;6.28;3.25;;;;;;;26.62;34.14;99974.16;256937;1104;114725;-83
2021/05/11 13:45:24;;;;;;;5.33;2.87;;;;;;;26.56;34.30;99951.11;256576;1100;114332;-84
2021/05/11 13:50:40;;;;;;;9.93;3.10;;;;;;;26.68;34.39;99943.38;257725;1100;114326;-84
2021/05/11 13:56:04;;;;;;;5.67;3.63;;;;;;;26.59;33.87;99947.16;256200;1104;114670;-85
2021/05/11 14:06:27;;;;;;;5.23;2.87;;;;;;;27.19;34.12;99930.14;256849;1099;114724;-85
2021/05/11 14:11:31;;;;;;;6.80;3.10;;;;;;;27.04;32.97;99935.52;257244;1099;114262;-83
2021/05/11 14:16:34;;;;;;;3.33;2.30;;;;;;;27.25;32.69;99927.70;256255;1107;114247;-85
2021/05/11 14:21:37;;;;;;;6.03;2.45;;;;;;;27.41;33.13;99919.42;256916;1104;114068;-83
2021/05/11 14:26:40;;;;;;;6.88;2.58;;;;;;;27.60;31.96;99917.20;256203;1104;114326;-85
2021/05/11 14:31:42;;;;;;;4.13;2.18;;;;;;;27.47;32.49;99915.94;260900;1106;114128;-82
2021/05/11 14:36:44;;;;;;;4.30;2.23;;;;;;;27.24;32.13;99934.20;260096;1100;114229;-86
2021/05/11 14:41:52;;;;;;;6.05;2.45;;;;;;;27.16;32.28;99922.28;259740;1099;114255;-83
2021/05/11 14:46:57;;;;;;;5.68;2.33;;;;;;;27.14;32.52;99907.92;259555;1100;114207;-84
2021/05/11 14:52:00;;;;;;;4.25;2.48;;;;;;;27.13;32.91;99905.38;256687;1104;114383;-83
2021/05/11 14:57:02;;;;;;;6.35;2.38;;;;;;;27.10;32.31;99892.92;255646;1100;114718;-85
2021/05/11 15:02:06;;;;;;;4.25;2.18;;;;;;;27.19;32.67;99900.05;256661;1104;114439;-85
2021/05/11 15:07:08;;;;;;;;;;;;;;;27.47;31.61;99894.05;255925;1100;114286;-86
2021/05/11 15:12:10;;;;;;;5.47;3.37;;;;;;;27.71;31.20;99900.31;255990;1105;103196;-85
2021/05/11 15:22:26;;;;;;;6.35;2.50;;;;;;;28.11;29.99;99881.81;256993;1104;114596;-84
2021/05/11 15:27:28;;;;;;;6.63;2.60;;;;;;;28.54;29.68;99880.27;255720;1100;114788;-82
2021/05/11 15:32:40;;;;;;;3.83;2.23;;;;;;;29.06;29.50;99876.45;256965;1104;114378;-86
2021/05/11 15:37:49;;;;;;;3.45;2.20;;;;;;;29.44;28.20;99877.26;255892;1100;114917;-79
2021/05/11 15:42:52;;;;;;;7.97;2.50;;;;;;;29.02;27.90;99875.15;255447;1100;114273;-78
2021/05/11 15:48:01;;;;;;;3.05;2.60;;;;;;;29.53;27.97;99865.09;256347;1105;114535;-78
2021/05/11 15:53:07;;;;;;;6.28;2.20;;;;;;;29.04;28.26;99859.32;256270;1104;114233;-78
2021/05/11 15:58:12;;;;;;;7.13;3.83;;;;;;;29.31;27.48;99873.36;256410;1104;114381;-80
2021/05/11 16:03:14;;;;;;;4.53;3.08;;;;;;;28.28;28.66;99876.12;256805;1100;114060;-77
2021/05/11 16:08:17;;;;;;;5.43;3.58;;;;;;;27.93;29.54;99867.58;256391;1100;114502;-80
2021/05/11 16:13:24;;;;;;;3.80;1.80;;;;;;;27.19;29.98;99866.35;256031;1099;114308;-79
2021/05/11 16:18:29;;;;;;;4.28;2.13;;;;;;;26.90;30.61;99864.34;256694;1100;114456;-79
2021/05/11 16:23:31;;;;;;;3.90;2.20;;;;;;;26.78;31.38;99859.31;256744;1100;114293;-79
2021/05/11 16:28:33;;;;;;;4.75;1.65;;;;;;;26.53;32.08;99853.94;256239;1099;114425;-80
2021/05/11 16:33:36;;;;;;;5.55;2.35;;;;;;;26.46;32.89;99846.64;256215;1104;114289;-79
2021/05/11 16:38:39;;;;;;;3.08;1.80;;;;;;;26.10;32.20;99853.44;256070;1100;114502;-78
2021/05/11 16:43:41;;;;;;;1.65;1.45;;;;;;;26.08;33.34;99852.75;255972;1107;114282;-80
2021/05/11 16:48:43;;;;;;;5.43;1.75;;;;;;;25.71;33.45;99840.55;255292;1100;114467;-80
2021/05/11 16:53:46;;;;;;;3.57;1.97;;;;;;;25.56;34.69;99854.03;255349;1107;114220;-80
2021/05/11 16:58:48;;;;;;;5.08;2.08;;;;;;;25.45;34.79;99849.77;255865;1100;114168;-80
2021/05/11 17:03:51;;;;;;;2.60;1.58;;;;;;;25.00;33.92;99843.78;255845;1107;114539;-79
2021/05/11 17:08:53;;;;;;;5.47;1.80;;;;;;;24.86;35.20;99864.39;257468;1100;114556;-78
2021/05/11 17:13:56;;;;;;;5.40;2.48;;;;;;;24.75;35.50;99857.38;256036;1104;115044;-80
2021/05/11 17:19:00;;;;;;;3.08;1.90;;;;;;;24.58;35.06;99848.28;255235;1107;114473;-80
2021/05/11 17:24:03;;;;;;;5.70;1.88;;;;;;;24.33;35.47;99850.91;255517;1105;114290;-81
2021/05/11 17:29:07;;;;;;;3.13;1.65;;;;;;;24.23;35.22;99854.78;255368;1100;114454;-82
2021/05/11 17:34:12;;;;;;;3.53;2.00;;;;;;;24.07;35.53;99859.13;255350;1100;114211;-81
2021/05/11 17:39:14;;;;;;;3.83;1.95;;;;;;;23.93;35.60;99857.88;255174;1100;114397;-81
2021/05/11 17:44:16;;;;;;;2.80;2.58;;;;;;;23.78;35.59;99862.16;256737;1100;114255;-79
2021/05/11 17:49:18;;;;;;;5.08;2.20;;;;;;;23.64;36.31;99859.02;256937;1104;114354;-80
2021/05/11 17:54:21;;;;;;;2.90;1.53;;;;;;;23.51;35.60;99864.87;256987;1107;114545;-84
2021/05/11 17:59:23;;;;;;;5.08;1.80;;;;;;;23.40;35.72;99870.57;258107;1104;114622;-81
2021/05/11 18:04:25;;;;;;;3.20;1.50;;;;;;;23.32;36.11;99870.50;256605;1100;114329;-82
2021/05/11 18:09:27;;;;;;;3.03;1.90;;;;;;;23.24;35.83;99874.02;255153;1100;114337;-81
2021/05/11 18:14:30;;;;;;;3.28;1.85;;;;;;;23.13;36.72;99869.64;255297;1100;115799;-84
2021/05/11 18:19:33;;;;;;;3.13;1.63;;;;;;;22.98;36.60;99866.59;255698;1100;114293;-83
2021/05/11 18:24:36;;;;;;;5.48;2.30;;;;;;;22.88;36.94;99874.81;256128;1104;114769;-82
2021/05/11 18:29:38;;;;;;;3.63;1.87;;;;;;;22.79;37.02;99883.04;256673;1100;114679;-79
2021/05/11 18:34:40;;;;;;;4.95;1.80;;;;;;;22.78;36.81;99884.91;255759;1100;114685;-80
2021/05/11 18:39:43;;;;;;;3.90;1.98;;;;;;;22.70;37.27;99887.53;255762;1105;114227;-84
2021/05/11 18:44:45;;;;;;;5.60;2.55;;;;;;;22.57;37.48;99904.18;256586;1099;114624;-85
2021/05/11 18:49:47;;;;;;;4.85;1.95;;;;;;;22.56;37.58;99899.75;256081;1100;114317;-82
2021/05/11 18:54:52;;;;;;;4.73;1.93;;;;;;;22.41;37.94;99902.97;255812;1107;114556;-83
2021/05/11 18:59:54;;;;;;;6.45;1.85;;;;;;;22.32;38.03;99900.27;255872;1099;114622;-81
2021/05/11 19:04:56;;;;;;;4.40;1.98;;;;;;;22.24;37.72;99901.03;256560;1104;114292;-82
2021/05/11 19:09:59;;;;;;;4.97;1.73;;;;;;;22.21;37.89;99904.03;256299;1104;114384;-82
2021/05/11 19:15:03;;;;;;;6.05;2.23;;;;;;;22.08;38.57;99904.38;255860;1100;114295;-84
2021/05/11 19:20:08;;;;;;;5.40;2.80;;;;;;;22.00;38.79;99901.55;256073;1099;114303;-85
2021/05/11 19:25:10;;;;;;;7.30;2.10;;;;;;;21.77;39.33;99902.76;256262;1105;114582;-83
2021/05/11 19:30:13;;;;;;;4.50;1.90;;;;;;;21.71;39.74;99903.31;256114;1104;114304;-84
2021/05/11 19:35:16;;;;;;;3.68;2.18;;;;;;;21.56;39.35;99902.89;255581;1100;114710;-81
2021/05/11 19:40:19;;;;;;;2.98;1.75;;;;;;;21.57;40.09;99910.06;256489;1100;114221;-80
2021/05/11 19:45:23;;;;;;;6.73;2.20;;;;;;;21.45;40.64;99909.31;256964;1104;114239;-82
2021/05/11 19:50:26;;;;;;;4.35;2.20;;;;;;;21.39;40.42;99899.05;256077;1106;115677;-80
2021/05/11 19:55:28;;;;;;;3.58;2.13;;;;;;;21.12;40.98;99906.05;255738;1100;114642;-81
2021/05/11 20:00:31;;;;;;;2.95;2.73;;;;;;;21.23;41.45;99891.50;256200;1100;114424;-80
2021/05/11 20:05:35;;;;;;;3.18;2.88;;;;;;;21.16;41.56;99896.63;256749;1105;114392;-82
2021/05/11 20:10:38;;;;;;;5.08;2.88;;;;;;;20.95;41.85;99885.05;256782;1103;114344;-81
2021/05/11 20:15:40;;;;;;;3.23;2.57;;;;;;;20.77;42.19;99893.89;257263;1107;114542;-82
2021/05/11 20:20:43;;;;;;;5.50;2.75;;;;;;;20.68;41.83;99889.27;256100;1100;114704;-79
2021/05/11 20:25:47;;;;;;;4.98;2.48;;;;;;;20.47;41.88;99886.66;256475;1105;114427;-82
2021/05/11 20:30:49;;;;;;;;;;;;;;;20.42;41.24;99886.19;257172;1105;114460;-84
2021/05/11 20:35:54;;;;;;;3.78;2.50;;;;;;;20.35;40.86;99888.61;256334;1100;103231;-83
2021/05/11 20:40:57;;;;;;;3.40;2.23;;;;;;;20.23;40.85;99893.26;256545;1105;114177;-81
2021/05/11 20:45:59;;;;;;;3.10;2.30;;;;;;;20.29;40.36;99891.87;256621;1099;114463;-83
2021/05/11 20:51:01;;;;;;;3.67;2.33;;;;;;;20.18;39.96;99888.25;256246;1100;114539;-83
2021/05/11 20:56:04;;;;;;;3.03;2.28;;;;;;;20.19;39.67;99889.97;255908;1107;114164;-82
2021/05/11 21:01:06;;;;;;;3.03;2.23;;;;;;;20.00;39.56;99889.89;257447;1107;114281;-82
2021/05/11 21:06:08;;;;;;;2.30;2.10;;;;;;;19.95;38.49;99892.98;257014;1107;114169;-82
2021/05/11 21:11:10;;;;;;;2.98;2.05;;;;;;;19.94;38.48;99885.86;256957;1100;114289;-82
2021/05/11 21:16:13;;;;;;;2.38;1.98;;;;;;;19.90;38.18;99885.27;259095;1107;114280;-81
2021/05/11 21:21:16;;;;;;;4.43;1.90;;;;;;;19.81;37.75;99880.63;260270;1106;113717;-82
2021/05/11 21:26:19;;;;;;;3.98;2.00;;;;;;;19.80;38.02;99887.05;256069;1106;114326;-84
2021/05/11 21:31:21;;;;;;;3.43;1.95;;;;;;;19.78;37.35;99880.91;255624;1102;114409;-82
2021/05/11 21:36:24;;;;;;;2.55;1.60;;;;;;;19.68;37.59;99888.09;255840;1100;114192;-82
2021/05/11 21:41:26;;;;;;;3.10;1.98;;;;;;;19.56;37.81;99887.30;257759;1100;114111;-79
2021/05/11 21:46:28;;;;;;;3.20;1.68;;;;;;;19.53;37.49;99874.91;258214;1107;114473;-82
2021/05/11 21:51:30;;;;;;;2.70;2.13;;;;;;;19.41;37.34;99873.27;257037;1102;114176;-82
2021/05/11 21:56:33;;;;;;;2.85;1.88;;;;;;;19.29;37.27;99868.91;256511;1107;114250;-78
2021/05/11 22:01:39;;;;;;;2.85;2.00;;;;;;;19.23;37.50;99871.16;255754;1100;114839;-79
2021/05/11 22:06:42;;;;;;;5.48;1.68;;;;;;;19.20;37.59;99863.30;256168;1107;114507;-81
2021/05/11 22:11:45;;;;;;;2.33;2.13;;;;;;;19.16;38.10;99866.39;256557;1100;114692;-81
2021/05/11 22:16:48;;;;;;;4.15;2.43;;;;;;;19.03;37.94;99855.78;256236;1103;114283;-81
2021/05/11 22:21:51;;;;;;;3.53;1.87;;;;;;;18.98;38.06;99857.98;255663;1107;114394;-81
2021/05/11 22:26:53;;;;;;;1.70;1.60;;;;;;;18.81;38.30;99854.84;256716;1100;114747;-82
2021/05/11 22:31:55;;;;;;;2.55;1.60;;;;;;;18.76;38.75;99859.75;256434;1100;114263;-82
2021/05/11 22:36:57;;;;;;;3.10;1.50;;;;;;;18.71;38.17;99853.88;256072;1101;114292;-79
2021/05/11 22:41:59;;;;;;;2.90;1.90;;;;;;;18.63;38.69;99851.83;256244;1107;114201;-80
2021/05/11 22:47:01;;;;;;;4.63;4.13;;;;;;;18.61;38.76;99849.23;255696;1107;114061;-80
2021/05/11 22:52:04;;;;;;;2.23;2.03;;;;;;;18.47;38.21;99841.41;255699;1107;114186;-81
2021/05/11 22:57:06;;;;;;;2.50;1.85;;;;;;;18.37;39.02;99833.22;255498;1106;114078;-82
2021/05/11 23:02:08;;;;;;;4.40;2.58;;;;;;;18.32;39.03;99843.53;256217;1107;114438;-80
2021/05/11 23:07:11;;;;;;;3.98;2.43;;;;;;;18.22;38.78;99843.42;256494;1107;114327;-81
2021/05/11 23:12:13;;;;;;;5.63;2.10;;;;;;;18.24;38.77;99841.47;256663;1100;114370;-82
2021/05/11 23:17:15;;;;;;;5.80;1.97;;;;;;;18.25;39.89;99835.10;256806;1107;114316;-80
2021/05/11 23:22:17;;;;;;;2.45;1.93;;;;;;;18.20;39.80;99823.80;256047;1105;114376;-81
2021/05/11 23:27:19;;;;;;;2.33;2.13;;;;;;;17.86;39.40;99821.09;255257;1107;114310;-83
2021/05/11 23:32:22;;;;;;;2.73;2.13;;;;;;;17.86;39.53;99818.41;255635;1107;114336;-82
2021/05/11 23:37:24;;;;;;;4.75;2.38;;;;;;;17.81;39.81;99807.14;256289;1100;114640;-81
2021/05/11 23:42:27;;;;;;;3.48;2.20;;;;;;;17.78;39.52;99796.59;256318;1100;114763;-81
2021/05/11 23:47:29;;;;;;;4.15;1.98;;;;;;;17.70;39.33;99797.20;256277;1107;114793;-81
2021/05/11 23:52:32;;;;;;;6.55;2.73;;;;;;;17.60;39.53;99794.39;256095;1106;114344;-81
2021/05/11 23:57:35;;;;;;;4.40;2.35;;;;;;;17.41;39.58;99788.74;255625;1100;114720;-83
